createdAt,value
2019-04-29T00:03:02.376Z,5.92
2019-04-29T00:08:06.239Z,5.40
2019-04-29T00:13:10.518Z,5.87
2019-04-29T00:18:31.457Z,5.65
2019-04-29T00:23:35.365Z,5.70
2019-04-29T00:28:39.261Z,6.40
2019-04-29T00:33:43.136Z,6.15
2019-04-29T00:39:04.736Z,6.47
2019-04-29T00:44:10.308Z,5.78
2019-04-29T00:49:14.310Z,6.30
2019-04-29T00:54:19.750Z,6.37
2019-04-29T00:59:23.640Z,7.03
2019-04-29T01:04:27.615Z,7.45
2019-04-29T01:09:31.588Z,7.25
2019-04-29T01:14:35.456Z,8.55
2019-04-29T01:19:39.374Z,8.70
2019-04-29T01:24:44.226Z,9.40
2019-04-29T01:29:48.103Z,9.75
2019-04-29T01:34:53.548Z,9.85
2019-04-29T01:40:14.093Z,10.60
2019-04-29T01:45:17.975Z,11.00
2019-04-29T01:50:21.852Z,10.80
2019-04-29T01:55:25.724Z,11.30
2019-04-29T02:00:29.590Z,12.43
2019-04-29T02:05:33.464Z,12.13
2019-04-29T02:10:37.347Z,11.93
2019-04-29T02:15:41.285Z,12.23
2019-04-29T02:20:45.218Z,12.15
2019-04-29T02:25:50.630Z,12.00
2019-04-29T02:30:54.926Z,12.07
2019-04-29T02:35:58.807Z,11.88
2019-04-29T02:41:10.109Z,11.73
2019-04-29T02:46:14.043Z,11.48
2019-04-29T02:51:19.555Z,11.35
2019-04-29T02:56:23.458Z,10.78
2019-04-29T03:01:28.954Z,11.38
2019-04-29T03:06:32.875Z,11.85
2019-04-29T03:11:36.794Z,10.93
2019-04-29T03:16:40.845Z,11.85
2019-04-29T03:21:46.347Z,10.85
2019-04-29T03:26:50.261Z,10.28
2019-04-29T03:31:55.108Z,10.70
2019-04-29T03:36:59.015Z,10.63
2019-04-29T03:42:07.012Z,10.50
2019-04-29T03:47:08.501Z,10.20
2019-04-29T03:52:12.419Z,9.98
2019-04-29T03:57:17.739Z,10.55
2019-04-29T04:02:26.326Z,9.28
2019-04-29T04:07:37.494Z,9.98
2019-04-29T04:12:41.413Z,10.28
2019-04-29T04:17:46.915Z,10.25
2019-04-29T04:22:50.828Z,11.20
2019-04-29T04:27:54.759Z,10.38
2019-04-29T04:32:58.964Z,10.85
2019-04-29T04:38:02.971Z,9.53
2019-04-29T04:43:06.836Z,10.35
2019-04-29T04:48:10.750Z,9.75
2019-04-29T04:53:14.829Z,10.25
2019-04-29T04:58:18.755Z,9.63
2019-04-29T05:03:22.665Z,9.00
2019-04-29T05:08:26.609Z,8.25
2019-04-29T05:13:30.527Z,8.03
2019-04-29T05:18:34.408Z,8.35
2019-04-29T05:23:41.398Z,7.42
2019-04-29T05:28:43.797Z,7.65
2019-04-29T05:33:47.676Z,7.03
2019-04-29T05:38:53.123Z,6.90
2019-04-29T05:44:07.939Z,7.65
2019-04-29T05:49:13.377Z,7.08
2019-04-29T05:54:21.395Z,7.30
2019-04-29T05:59:25.266Z,13.03
2019-04-29T06:04:29.165Z,11.53
2019-04-29T06:09:33.065Z,6.83
2019-04-29T06:14:40.190Z,6.28
2019-04-29T06:19:44.116Z,7.28
2019-04-29T06:24:48.033Z,6.55
2019-04-29T06:29:51.953Z,6.83
2019-04-29T06:34:55.862Z,6.42
2019-04-29T06:39:59.776Z,6.90
2019-04-29T06:45:05.710Z,6.70
2019-04-29T06:50:09.623Z,7.05
2019-04-29T06:55:13.638Z,6.58
2019-04-29T07:00:22.045Z,6.80
2019-04-29T07:05:23.316Z,7.08
2019-04-29T07:10:27.361Z,6.65
2019-04-29T07:15:31.203Z,6.47
2019-04-29T07:20:37.042Z,6.78
2019-04-29T07:25:40.680Z,6.62
2019-04-29T07:31:00.680Z,6.40
2019-04-29T07:35:50.148Z,6.37
2019-04-29T07:40:54.091Z,8.78
2019-04-29T07:46:05.667Z,6.67
2019-04-29T07:51:09.575Z,7.20
2019-04-29T07:56:13.453Z,7.70
2019-04-29T08:01:19.913Z,8.38
2019-04-29T08:06:23.145Z,9.25
2019-04-29T08:11:27.064Z,9.45
2019-04-29T08:16:31.189Z,12.35
2019-04-29T08:21:35.140Z,14.10
2019-04-29T08:26:46.791Z,14.05
2019-04-29T08:31:44.657Z,15.78
2019-04-29T08:36:48.582Z,16.77
2019-04-29T08:41:52.577Z,18.62
2019-04-29T08:47:00.832Z,19.70
2019-04-29T08:52:04.847Z,19.90
2019-04-29T08:57:08.865Z,21.25
2019-04-29T09:02:12.940Z,21.75
2019-04-29T09:07:21.874Z,22.05
2019-04-29T09:12:24.219Z,23.67
2019-04-29T09:17:28.475Z,25.12
2019-04-29T09:22:34.150Z,27.15
2019-04-29T09:27:40.709Z,27.65
2019-04-29T09:32:45.261Z,28.87
2019-04-29T09:37:49.203Z,31.17
2019-04-29T09:42:58.153Z,29.82
2019-04-29T09:48:02.207Z,33.30
2019-04-29T09:53:06.145Z,32.10
2019-04-29T09:58:10.097Z,31.57
2019-04-29T10:03:27.775Z,33.33
2019-04-29T10:08:31.702Z,34.08
2019-04-29T10:13:35.633Z,32.85
2019-04-29T10:18:41.086Z,34.27
2019-04-29T10:23:45.056Z,33.53
2019-04-29T10:28:53.173Z,33.60
2019-04-29T10:33:57.183Z,35.38
2019-04-29T10:39:02.653Z,37.73
2019-04-29T10:44:21.956Z,38.25
2019-04-29T10:49:34.840Z,37.17
2019-04-29T10:54:38.700Z,37.50
2019-04-29T10:59:44.973Z,38.30
2019-04-29T11:04:54.510Z,38.00
2019-04-29T11:10:03.062Z,37.03
2019-04-29T11:15:09.857Z,38.20
2019-04-29T11:20:15.774Z,38.30
2019-04-29T11:25:24.161Z,40.73
2019-04-29T11:30:29.818Z,36.68
2019-04-29T11:35:38.116Z,39.38
2019-04-29T11:40:44.223Z,39.33
2019-04-29T11:45:47.680Z,38.50
2019-04-29T11:50:56.349Z,39.48
2019-04-29T11:56:00.757Z,38.70
2019-04-29T12:01:18.472Z,39.35
2019-04-29T12:06:23.195Z,40.30
2019-04-29T12:11:35.753Z,40.52
2019-04-29T12:16:36.051Z,41.00
2019-04-29T12:21:41.807Z,39.10
2019-04-29T12:26:45.927Z,39.67
2019-04-29T12:32:00.494Z,39.25
2019-04-29T12:37:06.505Z,38.23
2019-04-29T12:42:29.950Z,39.08
2019-04-29T12:47:35.451Z,39.73
2019-04-29T12:52:40.598Z,38.78
2019-04-29T12:57:44.589Z,39.33
2019-04-29T13:02:59.841Z,40.85
2019-04-29T13:08:15.378Z,39.65
2019-04-29T13:13:20.351Z,40.83
2019-04-29T13:18:26.686Z,40.03
2019-04-29T13:23:36.260Z,39.48
2019-04-29T13:33:22.275Z,39.95
2019-04-29T13:33:41.762Z,38.05
2019-04-29T13:38:45.642Z,39.35
2019-04-29T13:43:52.102Z,39.58
2019-04-29T13:49:12.611Z,39.38
2019-04-29T13:54:06.637Z,39.10
2019-04-29T13:59:12.646Z,41.70
2019-04-29T14:04:25.984Z,44.10
2019-04-29T14:09:29.688Z,40.60
2019-04-29T14:14:33.570Z,41.02
2019-04-29T14:19:42.348Z,41.55
2019-04-29T14:24:42.987Z,41.28
2019-04-29T14:29:46.871Z,37.65
2019-04-29T14:34:52.444Z,40.25
2019-04-29T14:39:56.549Z,43.05
2019-04-29T14:45:02.120Z,42.35
2019-04-29T14:50:10.597Z,42.43
2019-04-29T14:55:15.006Z,42.67
2019-04-29T15:00:23.748Z,42.60
2019-04-29T15:05:27.661Z,43.67
2019-04-29T15:10:32.972Z,43.83
2019-04-29T15:15:47.481Z,45.25
2019-04-29T15:21:01.874Z,43.05
2019-04-29T15:26:04.747Z,43.02
2019-04-29T15:31:12.654Z,44.67
2019-04-29T15:36:14.309Z,42.20
2019-04-29T15:41:18.372Z,43.00
2019-04-29T15:46:22.838Z,43.58
2019-04-29T15:51:29.004Z,42.13
2019-04-29T15:56:33.803Z,44.13
2019-04-29T16:01:41.617Z,44.23
2019-04-29T16:06:47.667Z,42.60
2019-04-29T16:12:14.433Z,43.35
2019-04-29T16:17:20.722Z,42.13
2019-04-29T16:22:23.866Z,42.03
2019-04-29T16:27:27.773Z,42.45
2019-04-29T16:32:33.262Z,42.27
2019-04-29T16:37:37.146Z,43.87
2019-04-29T16:42:43.755Z,46.28
2019-04-29T16:47:48.640Z,45.23
2019-04-29T16:52:52.770Z,45.78
2019-04-29T16:57:59.646Z,44.77
2019-04-29T17:03:03.975Z,44.48
2019-04-29T17:08:09.377Z,42.90
2019-04-29T17:13:15.066Z,41.65
2019-04-29T17:18:19.036Z,41.80
2019-04-29T17:23:24.433Z,40.75
2019-04-29T17:28:30.209Z,42.13
2019-04-29T17:33:48.750Z,43.23
2019-04-29T17:38:44.267Z,42.75
2019-04-29T17:43:49.735Z,41.73
2019-04-29T17:49:04.719Z,41.90
2019-04-29T17:54:10.308Z,42.85
2019-04-29T17:59:29.630Z,43.17
2019-04-29T18:04:31.751Z,42.98
2019-04-29T18:09:42.106Z,42.30
2019-04-29T18:14:46.311Z,41.37
2019-04-29T18:20:01.415Z,43.08
2019-04-29T18:25:13.122Z,44.33
2019-04-29T18:30:27.377Z,42.85
2019-04-29T18:35:25.577Z,45.85
2019-04-29T18:40:30.219Z,44.38
2019-04-29T18:45:36.647Z,68.37
2019-04-29T18:50:39.968Z,56.65
2019-04-29T18:55:45.068Z,50.88
2019-04-29T19:00:52.406Z,50.05
2019-04-29T19:05:56.146Z,50.67
2019-04-29T19:11:00.038Z,51.85
2019-04-29T19:16:10.242Z,44.35
2019-04-29T19:21:10.369Z,49.80
2019-04-29T19:26:14.425Z,48.05
2019-04-29T19:31:18.353Z,47.80
2019-04-29T19:36:22.273Z,45.90
2019-04-29T19:41:27.917Z,48.85
2019-04-29T19:46:37.424Z,47.48
2019-04-29T19:51:39.338Z,51.53
2019-04-29T19:56:43.034Z,49.67
2019-04-29T20:01:50.990Z,59.05
2019-04-29T20:06:58.672Z,58.58
2019-04-29T20:11:59.209Z,48.85
2019-04-29T20:17:12.785Z,49.18
2019-04-29T20:22:13.455Z,45.98
2019-04-29T20:27:17.684Z,47.43
2019-04-29T20:32:22.266Z,46.98
2019-04-29T20:37:27.451Z,46.42
2019-04-29T20:42:31.929Z,49.18
2019-04-29T20:47:38.543Z,47.25
2019-04-29T20:52:52.094Z,44.50
2019-04-29T20:57:54.971Z,46.35
2019-04-29T21:02:59.038Z,46.33
2019-04-29T21:08:09.739Z,45.40
2019-04-29T21:13:22.451Z,47.08
2019-04-29T21:18:27.077Z,47.78
2019-04-29T21:23:35.238Z,44.60
2019-04-29T21:28:41.245Z,45.25
2019-04-29T21:33:42.480Z,45.05
2019-04-29T21:39:06.267Z,45.05
2019-04-29T21:44:10.507Z,46.85
2019-04-29T21:49:15.610Z,45.15
2019-04-29T21:54:19.708Z,47.88
2019-04-29T21:59:25.487Z,44.93
2019-04-29T22:04:32.696Z,45.83
2019-04-29T22:09:40.284Z,44.30
2019-04-29T22:14:45.023Z,43.00
2019-04-29T22:19:47.191Z,43.10
2019-04-29T22:24:51.344Z,45.00
2019-04-29T22:29:55.624Z,43.98
2019-04-29T22:35:01.629Z,43.20
2019-04-29T22:40:08.780Z,44.03
2019-04-29T22:45:13.060Z,43.23
2019-04-29T22:50:16.951Z,42.35
2019-04-29T22:55:20.853Z,38.48
2019-04-29T23:00:32.578Z,36.63
2019-04-29T23:05:31.818Z,49.63
2019-04-29T23:10:35.773Z,38.60
2019-04-29T23:15:39.691Z,33.30
2019-04-29T23:20:51.210Z,28.45
2019-04-29T23:25:55.678Z,24.05
2019-04-29T23:30:59.688Z,21.02
2019-04-29T23:36:03.580Z,18.42
2019-04-29T23:41:07.473Z,18.07
2019-04-29T23:46:11.370Z,18.05
2019-04-29T23:51:15.426Z,16.20
2019-04-29T23:56:20.998Z,15.63
